createdAt,value
2023-01-18T00:01:13.145Z,3.90
2023-01-18T00:03:42.106Z,4.27
2023-01-18T00:06:11.224Z,4.57
2023-01-18T00:08:40.913Z,4.30
2023-01-18T00:11:12.529Z,3.53
2023-01-18T00:13:41.145Z,3.77
2023-01-18T00:16:12.029Z,3.07
2023-01-18T00:18:39.998Z,3.43
2023-01-18T00:21:09.277Z,3.53
2023-01-18T00:23:37.571Z,3.57
2023-01-18T00:26:07.870Z,3.63
2023-01-18T00:28:37.417Z,3.23
2023-01-18T00:31:11.057Z,3.47
2023-01-18T00:33:39.093Z,3.30
2023-01-18T00:36:07.524Z,3.20
2023-01-18T00:38:35.306Z,3.53
2023-01-18T00:41:03.176Z,3.47
2023-01-18T00:43:39.015Z,3.83
2023-01-18T00:46:09.152Z,4.30
2023-01-18T00:48:38.710Z,4.70
2023-01-18T00:51:07.157Z,4.13
2023-01-18T00:53:34.992Z,4.87
2023-01-18T00:56:03.180Z,4.43
2023-01-18T00:58:30.946Z,4.70
2023-01-18T01:00:58.723Z,4.50
2023-01-18T01:03:27.886Z,4.33
2023-01-18T01:06:13.139Z,4.53
2023-01-18T01:08:40.893Z,4.23
2023-01-18T01:11:11.015Z,4.37
2023-01-18T01:13:56.679Z,4.53
2023-01-18T01:16:42.924Z,3.90
2023-01-18T01:19:29.737Z,2.73
2023-01-18T01:22:15.210Z,2.40
2023-01-18T01:25:00.639Z,2.60
2023-01-18T01:27:28.397Z,2.10
2023-01-18T01:29:56.150Z,2.23
2023-01-18T01:32:24.908Z,2.10
2023-01-18T01:34:54.058Z,2.20
2023-01-18T01:37:21.797Z,1.90
2023-01-18T01:39:49.595Z,2.10
2023-01-18T01:42:17.577Z,2.70
2023-01-18T01:44:49.937Z,2.80
2023-01-18T01:47:32.465Z,2.63
2023-01-18T01:50:08.059Z,2.00
2023-01-18T01:52:41.019Z,2.37
2023-01-18T01:55:13.817Z,1.97
2023-01-18T01:57:45.395Z,2.47
2023-01-18T02:00:15.362Z,2.37
2023-01-18T02:02:45.568Z,2.40
2023-01-18T02:05:17.932Z,2.40
2023-01-18T02:07:46.424Z,2.40
2023-01-18T02:10:14.295Z,2.60
2023-01-18T02:12:44.863Z,2.20
2023-01-18T02:15:12.828Z,2.57
2023-01-18T02:17:57.420Z,2.40
2023-01-18T02:20:49.865Z,2.37
2023-01-18T02:23:40.618Z,2.23
2023-01-18T02:26:30.665Z,2.20
2023-01-18T02:29:05.928Z,2.20
2023-01-18T02:31:38.705Z,2.13
2023-01-18T02:34:13.380Z,2.23
2023-01-18T02:36:47.840Z,2.10
2023-01-18T02:39:23.294Z,2.20
2023-01-18T02:42:14.522Z,2.53
2023-01-18T02:45:04.620Z,2.03
2023-01-18T02:47:33.874Z,2.23
2023-01-18T02:50:03.102Z,2.43
2023-01-18T02:52:41.124Z,1.97
2023-01-18T02:55:16.204Z,2.47
2023-01-18T02:57:44.950Z,2.80
2023-01-18T03:00:18.760Z,2.27
2023-01-18T03:02:47.869Z,2.20
2023-01-18T03:05:15.953Z,2.33
2023-01-18T03:07:47.223Z,2.33
2023-01-18T03:10:16.049Z,2.07
2023-01-18T03:12:52.925Z,2.57
2023-01-18T03:15:29.546Z,2.13
2023-01-18T03:18:00.703Z,2.20
2023-01-18T03:20:32.244Z,2.30
2023-01-18T03:23:21.974Z,2.40
2023-01-18T03:25:52.306Z,1.80
2023-01-18T03:28:42.456Z,2.67
2023-01-18T03:31:31.832Z,2.47
2023-01-18T03:34:03.474Z,2.43
2023-01-18T03:36:34.170Z,2.07
2023-01-18T03:39:06.813Z,2.30
2023-01-18T03:41:40.123Z,2.27
2023-01-18T03:44:11.662Z,2.53
2023-01-18T03:46:43.644Z,2.70
2023-01-18T03:49:12.280Z,2.27
2023-01-18T03:51:49.609Z,2.40
2023-01-18T03:54:23.669Z,2.47
2023-01-18T03:56:54.762Z,2.03
2023-01-18T03:59:22.549Z,1.93
2023-01-18T04:01:51.710Z,2.20
2023-01-18T04:04:19.522Z,2.20
2023-01-18T04:06:47.294Z,2.40
2023-01-18T04:09:15.153Z,2.70
2023-01-18T04:11:42.913Z,2.20
2023-01-18T04:14:10.703Z,2.50
2023-01-18T04:16:38.442Z,1.93
2023-01-18T04:19:08.596Z,2.30
2023-01-18T04:21:36.822Z,2.13
2023-01-18T04:24:04.801Z,2.47
2023-01-18T04:26:34.064Z,2.90
2023-01-18T04:29:02.423Z,2.30
2023-01-18T04:31:30.284Z,2.60
2023-01-18T04:33:58.169Z,2.77
2023-01-18T04:36:28.254Z,2.60
2023-01-18T04:38:57.250Z,2.77
2023-01-18T04:41:25.278Z,2.87
2023-01-18T04:43:53.064Z,2.50
2023-01-18T04:46:20.882Z,2.40
2023-01-18T04:48:51.473Z,2.67
2023-01-18T04:51:19.595Z,3.10
2023-01-18T04:53:48.877Z,4.23
2023-01-18T04:56:17.893Z,4.67
2023-01-18T04:58:45.661Z,3.33
2023-01-18T05:01:14.200Z,3.47
2023-01-18T05:03:42.209Z,3.50
2023-01-18T05:06:11.831Z,4.07
2023-01-18T05:08:40.836Z,3.73
2023-01-18T05:11:11.972Z,3.73
2023-01-18T05:13:40.065Z,3.20
2023-01-18T05:16:09.079Z,3.70
2023-01-18T05:18:36.896Z,3.57
2023-01-18T05:21:04.884Z,4.10
2023-01-18T05:23:32.853Z,4.37
2023-01-18T05:26:00.697Z,4.20
2023-01-18T05:28:30.062Z,4.43
2023-01-18T05:30:57.889Z,4.77
2023-01-18T05:33:25.673Z,4.50
2023-01-18T05:35:55.672Z,5.13
2023-01-18T05:38:24.177Z,5.10
2023-01-18T05:40:54.071Z,5.33
2023-01-18T05:43:23.506Z,6.10
2023-01-18T05:45:52.935Z,6.83
2023-01-18T05:48:21.731Z,10.00
2023-01-18T05:50:50.025Z,13.17
2023-01-18T05:53:19.665Z,9.00
2023-01-18T05:55:55.302Z,8.13
2023-01-18T05:58:23.105Z,7.67
2023-01-18T06:00:52.392Z,7.47
2023-01-18T06:03:20.421Z,7.33
2023-01-18T06:05:48.680Z,7.00
2023-01-18T06:08:16.618Z,7.10
2023-01-18T06:10:44.641Z,6.47
2023-01-18T06:13:12.433Z,7.00
2023-01-18T06:15:40.599Z,7.17
2023-01-18T06:18:09.702Z,6.53
2023-01-18T06:20:37.576Z,6.67
2023-01-18T06:23:05.575Z,7.67
2023-01-18T06:25:33.930Z,7.27
2023-01-18T06:28:02.563Z,6.60
2023-01-18T06:30:30.486Z,7.67
2023-01-18T06:32:58.804Z,7.60
2023-01-18T06:35:28.138Z,7.20
2023-01-18T06:37:56.394Z,6.77
2023-01-18T06:40:24.322Z,7.60
2023-01-18T06:42:52.148Z,7.27
2023-01-18T06:45:21.952Z,7.03
2023-01-18T06:47:49.908Z,7.03
2023-01-18T06:50:18.411Z,6.93
2023-01-18T06:52:47.522Z,7.10
2023-01-18T06:55:16.289Z,6.37
2023-01-18T06:57:44.304Z,6.53
2023-01-18T07:00:13.557Z,7.27
2023-01-18T07:02:41.347Z,6.50
2023-01-18T07:05:09.753Z,7.03
2023-01-18T07:07:37.528Z,7.03
2023-01-18T07:10:07.668Z,7.10
2023-01-18T07:12:35.615Z,6.57
2023-01-18T07:15:20.219Z,5.67
2023-01-18T07:17:50.112Z,6.17
2023-01-18T07:20:18.448Z,6.80
2023-01-18T07:22:46.310Z,6.17
2023-01-18T07:25:18.723Z,5.10
2023-01-18T07:27:46.617Z,5.53
2023-01-18T07:30:15.013Z,4.40
2023-01-18T07:32:48.485Z,4.40
2023-01-18T07:35:17.074Z,3.50
2023-01-18T07:37:49.268Z,3.90
2023-01-18T07:40:20.722Z,5.70
2023-01-18T07:42:48.962Z,4.57
2023-01-18T07:45:17.092Z,4.47
2023-01-18T07:47:46.387Z,4.20
2023-01-18T07:50:15.006Z,4.20
2023-01-18T07:52:42.802Z,3.70
2023-01-18T07:55:10.881Z,3.40
2023-01-18T07:57:40.030Z,3.10
2023-01-18T08:00:10.486Z,3.77
2023-01-18T08:02:38.244Z,3.50
2023-01-18T08:05:07.129Z,3.90
2023-01-18T08:07:35.094Z,3.90
2023-01-18T08:10:02.929Z,3.73
2023-01-18T08:12:30.678Z,3.80
2023-01-18T08:15:00.657Z,4.30
2023-01-18T08:17:29.643Z,5.07
2023-01-18T08:19:57.474Z,4.57
2023-01-18T08:22:25.239Z,5.03
2023-01-18T08:24:53.056Z,4.87
2023-01-18T08:27:21.073Z,5.33
2023-01-18T08:29:49.048Z,5.10
2023-01-18T08:32:18.185Z,5.17
2023-01-18T08:34:46.360Z,9.27
2023-01-18T08:37:14.210Z,9.13
2023-01-18T08:39:41.948Z,11.23
2023-01-18T08:42:12.760Z,7.87
2023-01-18T08:44:40.579Z,6.93
2023-01-18T08:47:08.343Z,6.67
2023-01-18T08:49:37.415Z,5.87
2023-01-18T08:52:05.589Z,5.37
2023-01-18T08:54:33.403Z,6.00
2023-01-18T08:57:02.058Z,5.77
2023-01-18T08:59:29.883Z,6.50
2023-01-18T09:01:58.595Z,5.87
2023-01-18T09:04:27.813Z,6.60
2023-01-18T09:06:56.936Z,7.60
2023-01-18T09:09:24.741Z,6.67
2023-01-18T09:11:52.557Z,7.20
2023-01-18T09:14:20.425Z,7.87
2023-01-18T09:16:48.225Z,7.73
2023-01-18T09:19:16.080Z,7.20
2023-01-18T09:21:45.752Z,7.40
2023-01-18T09:24:14.866Z,7.60
2023-01-18T09:26:45.110Z,7.93
2023-01-18T09:29:13.125Z,7.60
2023-01-18T09:31:40.938Z,7.70
2023-01-18T09:34:19.019Z,6.63
2023-01-18T09:36:50.401Z,8.57
2023-01-18T09:39:19.979Z,7.17
2023-01-18T09:41:53.050Z,6.70
2023-01-18T09:44:25.924Z,8.03
2023-01-18T09:46:56.310Z,7.50
2023-01-18T09:49:31.012Z,6.63
2023-01-18T09:52:08.587Z,6.57
2023-01-18T09:54:45.665Z,6.17
2023-01-18T09:57:27.637Z,6.03
2023-01-18T09:59:58.451Z,6.33
2023-01-18T10:02:32.313Z,6.40
2023-01-18T10:05:05.335Z,6.33
2023-01-18T10:07:36.764Z,7.03
2023-01-18T10:10:07.192Z,6.10
2023-01-18T10:12:40.316Z,6.80
2023-01-18T10:15:17.406Z,6.60
2023-01-18T10:17:47.227Z,6.20
2023-01-18T10:20:16.719Z,5.93
2023-01-18T10:22:50.665Z,5.47
2023-01-18T10:25:31.578Z,5.60
2023-01-18T10:28:26.080Z,5.67
2023-01-18T10:31:06.669Z,5.00
2023-01-18T10:33:37.325Z,5.03
2023-01-18T10:36:12.027Z,5.10
2023-01-18T10:38:41.743Z,4.87
2023-01-18T10:41:19.536Z,5.97
2023-01-18T10:43:47.379Z,5.97
2023-01-18T10:46:18.719Z,5.40
2023-01-18T10:48:48.464Z,5.83
2023-01-18T10:51:35.160Z,5.93
2023-01-18T10:54:22.892Z,5.23
2023-01-18T10:57:03.386Z,5.13
2023-01-18T10:59:37.036Z,4.67
2023-01-18T11:02:05.895Z,5.23
2023-01-18T11:04:34.764Z,5.33
2023-01-18T11:07:04.636Z,4.77
2023-01-18T11:09:42.627Z,4.97
2023-01-18T11:12:37.167Z,5.13
2023-01-18T11:15:29.144Z,4.50
2023-01-18T11:18:02.159Z,4.43
2023-01-18T11:20:36.224Z,5.17
2023-01-18T11:23:07.305Z,5.03
2023-01-18T11:25:40.990Z,4.70
2023-01-18T11:28:17.947Z,4.83
2023-01-18T11:30:53.131Z,5.17
2023-01-18T11:33:22.623Z,4.63
2023-01-18T11:35:55.191Z,4.97
2023-01-18T11:38:28.241Z,4.93
2023-01-18T11:41:15.237Z,4.93
2023-01-18T11:43:54.766Z,5.33
2023-01-18T11:46:43.413Z,4.90
2023-01-18T11:49:25.499Z,5.10
2023-01-18T11:51:58.690Z,4.60
2023-01-18T11:54:33.424Z,3.80
2023-01-18T11:57:03.244Z,4.60
2023-01-18T11:59:35.781Z,4.20
2023-01-18T12:02:30.644Z,3.73
2023-01-18T12:05:36.027Z,4.10
2023-01-18T12:08:22.330Z,3.60
2023-01-18T12:11:04.169Z,5.20
2023-01-18T12:13:37.066Z,4.30
2023-01-18T12:16:15.960Z,4.00
2023-01-18T12:19:05.552Z,4.07
2023-01-18T12:21:41.733Z,3.97
2023-01-18T12:24:34.839Z,3.33
2023-01-18T12:27:08.079Z,3.10
2023-01-18T12:30:00.675Z,3.50
2023-01-18T12:32:45.827Z,3.43
2023-01-18T12:35:45.271Z,3.83
2023-01-18T12:38:22.874Z,3.93
2023-01-18T12:41:33.565Z,3.50
2023-01-18T12:44:19.832Z,4.23
2023-01-18T12:46:59.200Z,3.73
2023-01-18T12:49:34.190Z,4.33
2023-01-18T12:52:18.011Z,4.30
2023-01-18T12:54:49.715Z,4.00
2023-01-18T12:57:19.604Z,4.30
2023-01-18T12:59:53.613Z,3.83
2023-01-18T13:02:29.560Z,4.03
2023-01-18T13:05:03.721Z,4.17
2023-01-18T13:07:35.480Z,3.83
2023-01-18T13:10:04.410Z,4.00
2023-01-18T13:12:32.877Z,4.70
2023-01-18T13:15:05.900Z,3.63
2023-01-18T13:17:40.640Z,4.30
2023-01-18T13:20:18.028Z,4.30
2023-01-18T13:22:57.430Z,3.80
2023-01-18T13:25:35.167Z,3.83
2023-01-18T13:28:05.374Z,4.00
2023-01-18T13:30:47.429Z,4.73
2023-01-18T13:33:16.951Z,3.83
2023-01-18T13:35:54.991Z,4.90
2023-01-18T13:38:40.113Z,3.83
2023-01-18T13:41:10.455Z,4.27
2023-01-18T13:44:04.593Z,4.37
2023-01-18T13:46:36.325Z,4.60
2023-01-18T13:49:38.007Z,4.47
2023-01-18T13:52:32.227Z,4.27
2023-01-18T13:55:03.610Z,5.23
2023-01-18T13:57:33.135Z,4.73
2023-01-18T14:00:02.298Z,4.37
2023-01-18T14:02:41.856Z,5.17
2023-01-18T14:05:19.800Z,5.00
2023-01-18T14:07:51.256Z,4.60
2023-01-18T14:10:26.298Z,5.23
2023-01-18T14:12:56.356Z,5.03
2023-01-18T14:15:28.091Z,4.83
2023-01-18T14:17:58.787Z,4.90
2023-01-18T14:20:52.697Z,4.80
2023-01-18T14:23:51.206Z,5.37
2023-01-18T14:26:22.275Z,5.03
2023-01-18T14:28:53.723Z,4.87
2023-01-18T14:31:25.738Z,5.97
2023-01-18T14:33:53.626Z,6.00
2023-01-18T14:36:23.771Z,4.37
2023-01-18T14:39:13.586Z,5.03
2023-01-18T14:41:45.326Z,4.83
2023-01-18T14:44:19.879Z,5.00
2023-01-18T14:46:50.975Z,5.23
2023-01-18T14:49:25.472Z,5.47
2023-01-18T14:51:54.467Z,4.67
2023-01-18T14:54:25.753Z,5.37
2023-01-18T14:57:01.286Z,4.40
2023-01-18T14:59:30.977Z,3.73
2023-01-18T15:02:00.292Z,4.03
2023-01-18T15:04:30.129Z,3.90
2023-01-18T15:07:00.764Z,3.70
2023-01-18T15:09:33.787Z,4.00
2023-01-18T15:12:05.426Z,3.57
2023-01-18T15:14:35.514Z,3.27
2023-01-18T15:17:08.107Z,3.40
2023-01-18T15:19:41.378Z,3.90
2023-01-18T15:22:13.202Z,3.77
2023-01-18T15:24:44.288Z,3.87
2023-01-18T15:27:14.595Z,3.63
2023-01-18T15:29:48.657Z,3.73
2023-01-18T15:32:20.590Z,4.37
2023-01-18T15:34:50.597Z,4.20
2023-01-18T15:37:23.510Z,4.20
2023-01-18T15:40:00.181Z,4.37
2023-01-18T15:42:30.167Z,3.93
2023-01-18T15:44:59.938Z,3.87
2023-01-18T15:47:30.332Z,3.87
2023-01-18T15:50:00.106Z,3.97
2023-01-18T15:52:42.141Z,4.07
2023-01-18T15:55:23.785Z,4.60
2023-01-18T15:57:58.783Z,3.57
2023-01-18T16:00:32.725Z,4.13
2023-01-18T16:03:01.689Z,4.10
2023-01-18T16:05:32.170Z,4.83
2023-01-18T16:08:21.410Z,4.30
2023-01-18T16:10:53.261Z,3.97
2023-01-18T16:13:39.956Z,3.93
2023-01-18T16:16:18.526Z,3.27
2023-01-18T16:18:48.884Z,3.50
2023-01-18T16:21:26.255Z,3.50
2023-01-18T16:23:55.275Z,4.27
2023-01-18T16:26:28.833Z,3.97
2023-01-18T16:29:05.955Z,4.20
2023-01-18T16:31:34.550Z,4.27
2023-01-18T16:34:02.773Z,6.13
2023-01-18T16:36:37.996Z,7.67
2023-01-18T16:39:09.581Z,6.13
2023-01-18T16:41:38.711Z,6.53
2023-01-18T16:44:06.670Z,6.00
2023-01-18T16:46:35.565Z,6.07
2023-01-18T16:49:03.378Z,5.10
2023-01-18T16:51:31.295Z,5.87
2023-01-18T16:53:59.532Z,4.77
2023-01-18T16:56:27.292Z,4.87
2023-01-18T16:58:56.424Z,5.23
2023-01-18T17:01:24.356Z,4.80
2023-01-18T17:03:52.209Z,6.07
2023-01-18T17:06:22.469Z,5.60
2023-01-18T17:08:50.649Z,5.13
2023-01-18T17:11:18.432Z,4.13
2023-01-18T17:13:47.544Z,4.40
2023-01-18T17:16:18.865Z,4.37
2023-01-18T17:18:47.882Z,4.30
2023-01-18T17:21:15.694Z,4.20
2023-01-18T17:23:43.495Z,4.97
2023-01-18T17:26:14.978Z,4.40
2023-01-18T17:28:42.738Z,4.53
2023-01-18T17:31:10.629Z,4.77
2023-01-18T17:33:40.314Z,4.30
2023-01-18T17:36:09.563Z,4.60
2023-01-18T17:38:37.468Z,4.80
2023-01-18T17:41:05.338Z,4.40
2023-01-18T17:43:34.906Z,4.40
2023-01-18T17:46:04.664Z,5.37
2023-01-18T17:48:32.559Z,5.17
2023-01-18T17:51:01.672Z,5.70
2023-01-18T17:53:29.447Z,6.10
2023-01-18T17:55:57.297Z,5.07
2023-01-18T17:58:25.095Z,5.63
2023-01-18T18:00:53.455Z,5.63
2023-01-18T18:03:21.929Z,7.90
2023-01-18T18:05:50.739Z,8.93
2023-01-18T18:08:21.387Z,6.90
2023-01-18T18:10:49.493Z,8.33
2023-01-18T18:13:18.719Z,8.40
2023-01-18T18:15:46.801Z,7.93
2023-01-18T18:18:30.047Z,7.47
2023-01-18T18:20:58.846Z,7.10
2023-01-18T18:23:29.182Z,7.17
2023-01-18T18:25:57.854Z,9.13
2023-01-18T18:28:29.315Z,8.00
2023-01-18T18:30:57.885Z,13.63
2023-01-18T18:33:26.821Z,11.07
2023-01-18T18:35:54.640Z,9.57
2023-01-18T18:38:23.697Z,10.57
2023-01-18T18:40:53.205Z,14.53
2023-01-18T18:43:21.428Z,15.43
2023-01-18T18:45:49.241Z,20.57
2023-01-18T18:48:17.089Z,9.23
2023-01-18T18:50:46.555Z,8.27
2023-01-18T18:53:14.413Z,6.13
2023-01-18T18:55:42.220Z,5.73
2023-01-18T18:58:11.570Z,5.67
2023-01-18T19:00:39.678Z,5.67
2023-01-18T19:03:08.416Z,5.80
2023-01-18T19:05:37.055Z,4.90
2023-01-18T19:08:05.009Z,4.70
2023-01-18T19:10:32.830Z,5.10
2023-01-18T19:13:02.581Z,5.40
2023-01-18T19:15:32.137Z,6.20
2023-01-18T19:17:59.936Z,5.47
2023-01-18T19:20:27.810Z,5.10
2023-01-18T19:22:56.007Z,5.83
2023-01-18T19:25:23.754Z,5.10
2023-01-18T19:27:51.518Z,6.30
2023-01-18T19:30:19.917Z,5.33
2023-01-18T19:32:50.711Z,5.50
2023-01-18T19:35:19.322Z,4.80
2023-01-18T19:37:48.118Z,4.80
2023-01-18T19:40:16.974Z,4.80
2023-01-18T19:42:49.391Z,4.97
2023-01-18T19:45:27.280Z,5.70
2023-01-18T19:47:58.510Z,5.50
2023-01-18T19:50:27.074Z,5.60
2023-01-18T19:52:55.129Z,5.37
2023-01-18T19:55:22.987Z,5.40
2023-01-18T19:57:52.096Z,5.10
2023-01-18T20:00:20.800Z,6.00
2023-01-18T20:02:50.582Z,7.73
2023-01-18T20:05:20.121Z,13.37
2023-01-18T20:07:47.970Z,18.37
2023-01-18T20:10:19.922Z,22.13
2023-01-18T20:12:48.375Z,16.77
2023-01-18T20:15:17.465Z,13.57
2023-01-18T20:17:45.260Z,11.00
2023-01-18T20:20:24.021Z,9.13
2023-01-18T20:23:02.731Z,9.77
2023-01-18T20:25:31.510Z,8.83
2023-01-18T20:27:59.318Z,8.10
2023-01-18T20:30:27.117Z,7.40
2023-01-18T20:32:54.917Z,7.60
2023-01-18T20:35:22.820Z,6.50
2023-01-18T20:37:51.959Z,7.17
2023-01-18T20:40:21.281Z,7.20
2023-01-18T20:42:49.197Z,10.90
2023-01-18T20:45:17.126Z,11.07
2023-01-18T20:47:44.919Z,11.73
2023-01-18T20:50:13.006Z,10.63
2023-01-18T20:52:40.781Z,9.50
2023-01-18T20:55:12.677Z,8.40
2023-01-18T20:57:41.826Z,7.57
2023-01-18T21:00:12.377Z,7.43
2023-01-18T21:02:41.533Z,5.83
2023-01-18T21:05:09.909Z,6.90
2023-01-18T21:07:39.406Z,6.70
2023-01-18T21:10:10.125Z,6.90
2023-01-18T21:12:37.886Z,6.23
2023-01-18T21:15:08.978Z,5.80
2023-01-18T21:17:37.270Z,5.70
2023-01-18T21:20:05.630Z,5.20
2023-01-18T21:22:33.373Z,5.40
2023-01-18T21:25:01.165Z,5.63
2023-01-18T21:27:29.160Z,4.90
2023-01-18T21:29:56.914Z,5.30
2023-01-18T21:32:26.030Z,5.40
2023-01-18T21:34:53.770Z,5.57
2023-01-18T21:37:21.501Z,5.83
2023-01-18T21:39:49.308Z,4.97
2023-01-18T21:42:34.480Z,5.53
2023-01-18T21:45:20.028Z,4.67
2023-01-18T21:47:49.143Z,4.60
2023-01-18T21:50:35.192Z,4.33
2023-01-18T21:53:20.809Z,4.93
2023-01-18T21:55:48.614Z,4.90
2023-01-18T21:58:39.112Z,4.80
2023-01-18T22:01:11.494Z,5.63
2023-01-18T22:03:41.325Z,5.33
2023-01-18T22:06:09.694Z,5.43
2023-01-18T22:08:37.437Z,5.30
2023-01-18T22:11:05.821Z,6.07
2023-01-18T22:13:33.734Z,5.77
2023-01-18T22:16:06.486Z,4.97
2023-01-18T22:18:34.249Z,5.17
2023-01-18T22:21:03.404Z,5.47
2023-01-18T22:23:31.206Z,5.50
2023-01-18T22:25:58.961Z,5.10
2023-01-18T22:28:26.779Z,5.27
2023-01-18T22:30:54.639Z,6.00
2023-01-18T22:33:22.437Z,6.00
2023-01-18T22:35:50.195Z,5.97
2023-01-18T22:38:19.328Z,6.03
2023-01-18T22:40:47.091Z,6.27
2023-01-18T22:43:14.876Z,6.10
2023-01-18T22:45:42.640Z,5.53
2023-01-18T22:48:12.007Z,6.20
2023-01-18T22:50:39.761Z,6.27
2023-01-18T22:53:07.511Z,6.00
2023-01-18T22:55:36.646Z,6.50
2023-01-18T22:58:04.435Z,6.30
2023-01-18T23:00:32.216Z,6.53
2023-01-18T23:03:00.001Z,5.87
2023-01-18T23:05:27.792Z,6.00
2023-01-18T23:07:55.540Z,6.53
2023-01-18T23:10:23.341Z,5.97
2023-01-18T23:12:53.868Z,5.93
2023-01-18T23:15:39.363Z,6.70
2023-01-18T23:18:07.215Z,6.40
2023-01-18T23:20:35.889Z,5.57
2023-01-18T23:23:05.050Z,5.83
2023-01-18T23:25:33.617Z,5.23
2023-01-18T23:28:04.986Z,5.90
2023-01-18T23:30:33.041Z,7.57
2023-01-18T23:33:00.914Z,9.10
2023-01-18T23:35:28.690Z,8.33
2023-01-18T23:37:56.482Z,8.37
2023-01-18T23:40:41.947Z,7.17
2023-01-18T23:43:28.802Z,8.90
2023-01-18T23:46:14.252Z,7.67
2023-01-18T23:48:59.786Z,7.37
2023-01-18T23:51:45.227Z,6.47
2023-01-18T23:54:16.770Z,7.33
2023-01-18T23:56:45.597Z,7.03
2023-01-18T23:59:14.822Z,6.87
